Terminal Aerodrome Forecast
Issued by NWS Brownsville, TX

Home | Current Version | Previous Version | Text Only | Print | Product List | Glossary On
Versions: 1 2 3 4 5 6 7 8 9 10 11 12 13 14 15 16 17 18 19 20 21 22 23 24 25 26 27 28 29 30 31 32 33 34 35
000
FTUS44 KBRO 262054 AAB
TAFMFE
TAF AMD
KMFE 262054Z 2621/2718 15016G28KT P6SM FEW035 BKN250
     FM270230 14010KT P6SM VCSH BKN020 PROB30 2706/2710 4SM -TSRA
      BKN015CB
     FM271000 15009KT P6SM OVC012
      TEMPO 2711/2714 3SM BR BKN008
     FM271600 16018G24KT P6SM VCSH SCT025 BKN035=

USA.gov is the U.S. government's official web portal to all federal, state and local government web resources and services.